createdAt,value
2018-07-04T00:02:01.734Z,22.87
2018-07-04T00:04:42.058Z,22.86
2018-07-04T00:07:22.250Z,22.78
2018-07-04T00:10:02.685Z,22.86
2018-07-04T00:12:43.093Z,22.68
2018-07-04T00:15:23.378Z,22.54
2018-07-04T00:18:03.696Z,22.29
2018-07-04T00:20:43.979Z,22.43
2018-07-04T00:23:24.305Z,22.54
2018-07-04T00:26:04.669Z,22.57
2018-07-04T00:28:45.020Z,22.58
2018-07-04T00:31:25.284Z,22.59
2018-07-04T00:34:05.798Z,22.53
2018-07-04T00:36:46.108Z,22.55
2018-07-04T00:39:26.353Z,22.59
2018-07-04T00:42:06.622Z,22.56
2018-07-04T00:44:46.959Z,22.57
2018-07-04T00:47:27.430Z,22.57
2018-07-04T00:50:08.246Z,22.57
2018-07-04T00:52:48.477Z,22.35
2018-07-04T00:55:28.923Z,21.85
2018-07-04T00:58:09.277Z,22.09
2018-07-04T01:00:49.726Z,22.24
2018-07-04T01:03:30.069Z,22.31
2018-07-04T01:06:10.484Z,22.38
2018-07-04T01:08:50.846Z,22.36
2018-07-04T01:11:31.245Z,22.34
2018-07-04T01:14:11.636Z,22.35
2018-07-04T01:16:52.094Z,22.40
2018-07-04T01:19:32.570Z,21.60
2018-07-04T01:22:12.865Z,22.04
2018-07-04T01:24:53.373Z,22.24
2018-07-04T01:27:33.933Z,22.19
2018-07-04T01:30:16.683Z,22.31
2018-07-04T01:32:57.218Z,22.29
2018-07-04T01:35:37.566Z,22.17
2018-07-04T01:38:18.046Z,21.66
2018-07-04T01:40:58.570Z,21.96
2018-07-04T01:43:38.933Z,22.03
2018-07-04T01:46:19.467Z,22.02
2018-07-04T01:48:59.789Z,22.14
2018-07-04T01:51:40.498Z,22.16
2018-07-04T01:54:20.994Z,22.16
2018-07-04T01:57:01.509Z,22.04
2018-07-04T01:59:41.742Z,21.97
2018-07-04T02:02:22.154Z,21.92
2018-07-04T02:05:02.453Z,22.03
2018-07-04T02:07:42.885Z,21.99
2018-07-04T02:10:23.253Z,21.94
2018-07-04T02:13:03.675Z,22.03
2018-07-04T02:15:44.028Z,21.57
2018-07-04T02:18:24.442Z,21.85
2018-07-04T02:21:04.707Z,21.98
2018-07-04T02:23:45.082Z,21.62
2018-07-04T02:26:25.482Z,21.64
2018-07-04T02:29:05.756Z,21.88
2018-07-04T02:31:46.110Z,21.90
2018-07-04T02:34:27.300Z,21.91
2018-07-04T02:37:09.054Z,21.93
2018-07-04T02:39:49.321Z,21.87
2018-07-04T02:42:29.505Z,21.84
2018-07-04T02:45:09.689Z,21.77
2018-07-04T02:47:50.267Z,21.87
2018-07-04T02:50:30.650Z,21.63
2018-07-04T02:53:11.089Z,21.60
2018-07-04T02:55:51.537Z,21.75
2018-07-04T02:58:31.774Z,21.84
2018-07-04T03:01:12.154Z,21.87
2018-07-04T03:03:52.590Z,21.75
2018-07-04T03:06:32.902Z,21.49
2018-07-04T03:09:13.331Z,21.70
2018-07-04T03:11:53.602Z,21.62
2018-07-04T03:14:33.914Z,21.38
2018-07-04T03:17:14.192Z,21.14
2018-07-04T03:19:54.637Z,21.54
2018-07-04T03:22:34.921Z,21.65
2018-07-04T03:25:15.361Z,21.35
2018-07-04T03:27:55.885Z,21.45
2018-07-04T03:30:36.192Z,20.99
2018-07-04T03:33:16.691Z,20.70
2018-07-04T03:35:57.176Z,20.94
2018-07-04T03:38:37.671Z,21.06
2018-07-04T03:41:18.047Z,20.81
2018-07-04T03:43:58.396Z,20.87
2018-07-04T03:46:38.894Z,21.23
2018-07-04T03:49:19.246Z,21.55
2018-07-04T03:51:59.708Z,21.55
2018-07-04T03:54:40.171Z,21.53
2018-07-04T03:57:20.523Z,21.10
2018-07-04T04:00:00.877Z,21.46
2018-07-04T04:02:41.251Z,21.66
2018-07-04T04:05:21.920Z,21.68
2018-07-04T04:08:02.354Z,21.17
2018-07-04T04:10:42.665Z,21.40
2018-07-04T04:13:23.093Z,21.59
2018-07-04T04:16:03.294Z,21.87
2018-07-04T04:18:43.805Z,21.72
2018-07-04T04:21:24.247Z,21.99
2018-07-04T04:24:04.502Z,21.89
2018-07-04T04:26:44.831Z,21.98
2018-07-04T04:29:25.185Z,22.22
2018-07-04T04:32:05.551Z,22.18
2018-07-04T04:34:45.955Z,22.38
2018-07-04T04:37:26.520Z,22.45
2018-07-04T04:40:07.003Z,22.62
2018-07-04T04:42:47.324Z,22.57
2018-07-04T04:45:27.808Z,22.30
2018-07-04T04:48:08.169Z,22.10
2018-07-04T04:50:48.733Z,22.55
2018-07-04T04:53:29.224Z,22.75
2018-07-04T04:56:09.745Z,22.92
2018-07-04T04:58:49.897Z,22.76
2018-07-04T05:01:30.443Z,22.82
2018-07-04T05:04:10.688Z,23.08
2018-07-04T05:06:51.036Z,23.19
2018-07-04T05:09:31.477Z,23.30
2018-07-04T05:12:11.859Z,23.25
2018-07-04T05:14:52.205Z,23.28
2018-07-04T05:17:32.458Z,23.02
2018-07-04T05:20:12.746Z,22.84
2018-07-04T05:22:53.036Z,23.07
2018-07-04T05:25:33.414Z,22.96
2018-07-04T05:28:13.835Z,22.82
2018-07-04T05:30:54.116Z,23.44
2018-07-04T05:33:34.925Z,22.89
2018-07-04T05:36:15.470Z,22.44
2018-07-04T05:38:55.799Z,23.47
2018-07-04T05:41:36.390Z,23.15
2018-07-04T05:44:16.787Z,24.09
2018-07-04T05:46:57.043Z,24.35
2018-07-04T05:49:37.467Z,23.78
2018-07-04T05:52:17.863Z,23.62
2018-07-04T05:54:58.235Z,23.81
2018-07-04T05:57:38.909Z,23.83
2018-07-04T06:00:19.305Z,24.05
2018-07-04T06:02:59.676Z,24.00
2018-07-04T06:05:39.946Z,23.89
2018-07-04T06:08:20.509Z,23.82
2018-07-04T06:11:00.851Z,24.32
2018-07-04T06:13:41.203Z,24.35
2018-07-04T06:16:21.476Z,25.05
2018-07-04T06:19:02.171Z,25.03
2018-07-04T06:21:42.687Z,25.62
2018-07-04T06:24:23.058Z,25.47
2018-07-04T06:27:03.962Z,25.68
2018-07-04T06:29:44.555Z,25.63
2018-07-04T06:32:25.027Z,25.52
2018-07-04T06:35:05.371Z,25.20
2018-07-04T06:37:39.306Z,26.00
2018-07-04T06:40:07.758Z,26.04
2018-07-04T06:42:36.852Z,26.63
2018-07-04T06:45:04.865Z,27.02
2018-07-04T06:47:33.182Z,27.24
2018-07-04T06:50:01.306Z,26.34
2018-07-04T06:52:29.365Z,27.07
2018-07-04T06:54:57.470Z,26.93
2018-07-04T06:57:25.616Z,26.64
2018-07-04T06:59:53.770Z,27.75
2018-07-04T07:02:22.174Z,27.32
2018-07-04T07:05:03.610Z,28.29
2018-07-04T07:07:44.964Z,28.69
2018-07-04T07:10:25.278Z,28.91
2018-07-04T07:13:05.710Z,28.28
2018-07-04T07:15:46.047Z,29.11
2018-07-04T07:18:26.537Z,28.76
2018-07-04T07:21:06.822Z,28.73
2018-07-04T07:23:47.096Z,28.69
2018-07-04T07:26:27.396Z,29.24
2018-07-04T07:29:07.964Z,29.13
2018-07-04T07:31:48.455Z,28.76
2018-07-04T07:34:28.802Z,29.18
2018-07-04T07:37:09.279Z,29.07
2018-07-04T07:39:49.698Z,29.98
2018-07-04T07:42:30.099Z,29.26
2018-07-04T07:45:10.607Z,29.68
2018-07-04T07:47:51.197Z,30.32
2018-07-04T07:50:31.822Z,29.90
2018-07-04T07:53:12.271Z,30.59
2018-07-04T07:55:52.821Z,30.90
2018-07-04T07:58:33.193Z,30.79
2018-07-04T08:01:13.924Z,30.60
2018-07-04T08:03:54.498Z,30.45
2018-07-04T08:06:34.870Z,30.77
2018-07-04T08:09:15.262Z,30.87
2018-07-04T08:11:55.606Z,31.26
2018-07-04T08:14:36.051Z,31.97
2018-07-04T08:17:16.589Z,31.51
2018-07-04T08:19:56.914Z,31.27
2018-07-04T08:22:37.261Z,31.59
2018-07-04T08:25:17.722Z,30.97
2018-07-04T08:27:58.208Z,31.64
2018-07-04T08:30:38.762Z,31.89
2018-07-04T08:33:19.197Z,31.26
2018-07-04T08:35:59.485Z,31.93
2018-07-04T08:38:40.067Z,32.08
2018-07-04T08:41:20.471Z,33.08
2018-07-04T08:44:00.983Z,32.88
2018-07-04T08:46:41.406Z,32.25
2018-07-04T08:49:21.910Z,32.42
2018-07-04T08:52:02.370Z,32.79
2018-07-04T08:54:42.755Z,32.66
2018-07-04T08:57:23.236Z,33.64
2018-07-04T09:00:03.498Z,33.33
2018-07-04T09:02:43.946Z,34.32
2018-07-04T09:05:24.270Z,34.55
2018-07-04T09:08:04.775Z,34.92
2018-07-04T09:10:45.178Z,34.77
2018-07-04T09:13:25.559Z,34.45
2018-07-04T09:16:05.878Z,33.22
2018-07-04T09:18:46.426Z,32.82
2018-07-04T09:21:26.935Z,32.71
2018-07-04T09:24:07.284Z,33.81
2018-07-04T09:26:47.815Z,33.48
2018-07-04T09:29:28.248Z,33.96
2018-07-04T09:32:08.620Z,34.41
2018-07-04T09:34:49.013Z,35.23
2018-07-04T09:37:29.401Z,35.56
2018-07-04T09:40:09.711Z,35.08
2018-07-04T09:42:50.144Z,34.99
2018-07-04T09:45:30.394Z,34.79
2018-07-04T09:48:10.873Z,35.03
2018-07-04T09:50:50.949Z,35.56
2018-07-04T09:53:31.364Z,34.23
2018-07-04T09:56:11.921Z,34.10
2018-07-04T09:58:52.607Z,35.05
2018-07-04T10:01:32.976Z,35.28
2018-07-04T10:04:13.485Z,34.80
2018-07-04T10:06:53.862Z,35.54
2018-07-04T10:09:34.163Z,35.64
2018-07-04T10:12:14.626Z,35.87
2018-07-04T10:14:54.967Z,35.39
2018-07-04T10:17:35.379Z,36.29
2018-07-04T10:20:15.624Z,35.92
2018-07-04T10:22:55.991Z,36.19
2018-07-04T10:25:36.327Z,36.42
2018-07-04T10:28:16.729Z,37.10
2018-07-04T10:30:57.169Z,36.35
2018-07-04T10:33:37.530Z,36.33
2018-07-04T10:36:18.040Z,35.52
2018-07-04T10:38:58.437Z,37.29
2018-07-04T10:41:38.810Z,37.33
2018-07-04T10:44:19.125Z,36.73
2018-07-04T10:46:59.435Z,36.88
2018-07-04T10:49:39.919Z,36.78
2018-07-04T10:52:20.352Z,36.25
2018-07-04T10:55:00.745Z,36.50
2018-07-04T10:57:41.145Z,36.04
2018-07-04T11:00:21.398Z,36.70
2018-07-04T11:03:01.951Z,36.12
2018-07-04T11:05:42.394Z,35.62
2018-07-04T11:08:22.975Z,36.17
2018-07-04T11:11:03.429Z,36.00
2018-07-04T11:13:43.834Z,36.16
2018-07-04T11:16:24.080Z,37.07
2018-07-04T11:19:04.609Z,36.24
2018-07-04T11:21:45.073Z,34.33
2018-07-04T11:24:25.541Z,34.26
2018-07-04T11:27:06.204Z,33.99
2018-07-04T11:29:46.793Z,35.31
2018-07-04T11:32:27.320Z,34.96
2018-07-04T11:35:07.868Z,35.00
2018-07-04T11:37:48.340Z,35.83
2018-07-04T11:40:28.725Z,35.04
2018-07-04T11:43:09.208Z,33.40
2018-07-04T11:45:49.744Z,33.01
2018-07-04T11:48:17.958Z,32.98
2018-07-04T11:50:46.210Z,33.20
2018-07-04T11:53:14.394Z,33.71
2018-07-04T11:55:42.563Z,34.12
2018-07-04T11:58:10.729Z,34.42
2018-07-04T12:00:38.851Z,34.34
2018-07-04T12:03:18.627Z,34.59
2018-07-04T12:05:59.356Z,34.89
2018-07-04T12:08:27.770Z,35.40
2018-07-04T12:10:56.445Z,35.98
2018-07-04T12:13:25.898Z,36.85
2018-07-04T12:15:54.215Z,37.10
2018-07-04T12:18:22.369Z,36.76
2018-07-04T12:20:50.538Z,36.89
2018-07-04T12:23:18.719Z,38.12
2018-07-04T12:25:46.880Z,38.19
2018-07-04T12:28:15.040Z,38.10
2018-07-04T12:30:43.153Z,38.37
2018-07-04T12:33:11.245Z,36.98
2018-07-04T12:35:39.238Z,37.04
2018-07-04T12:38:07.285Z,36.76
2018-07-04T12:40:35.502Z,36.80
2018-07-04T12:43:03.707Z,36.68
2018-07-04T12:45:39.395Z,37.27
2018-07-04T12:47:59.917Z,36.69
2018-07-04T12:50:29.643Z,36.13
2018-07-04T12:52:57.857Z,36.63
2018-07-04T12:55:39.602Z,35.99
2018-07-04T12:58:20.833Z,36.11
2018-07-04T13:01:01.437Z,36.22
2018-07-04T13:03:42.050Z,36.40
2018-07-04T13:06:23.013Z,36.13
2018-07-04T13:09:04.172Z,36.38
2018-07-04T13:11:44.581Z,35.25
2018-07-04T13:14:24.865Z,35.63
2018-07-04T13:17:05.298Z,34.91
2018-07-04T13:19:45.762Z,34.85
2018-07-04T13:22:26.012Z,34.79
2018-07-04T13:25:06.534Z,34.83
2018-07-04T13:27:46.974Z,34.79
2018-07-04T13:30:27.491Z,33.97
2018-07-04T13:33:07.801Z,33.64
2018-07-04T13:35:48.229Z,34.91
2018-07-04T13:38:28.671Z,35.14
2018-07-04T13:41:09.248Z,34.99
2018-07-04T13:43:49.869Z,34.89
2018-07-04T13:46:30.283Z,35.01
2018-07-04T13:49:10.796Z,34.85
2018-07-04T13:51:51.330Z,34.49
2018-07-04T13:54:31.716Z,34.35
2018-07-04T13:57:12.172Z,33.84
2018-07-04T13:59:52.642Z,34.59
2018-07-04T14:02:33.065Z,34.00
2018-07-04T14:05:13.538Z,34.30
2018-07-04T14:07:54.264Z,34.66
2018-07-04T14:10:34.916Z,34.83
2018-07-04T14:13:15.418Z,34.57
2018-07-04T14:15:55.706Z,34.45
2018-07-04T14:18:36.065Z,34.70
2018-07-04T14:21:16.517Z,34.77
2018-07-04T14:23:57.294Z,34.77
2018-07-04T14:26:37.935Z,34.76
2018-07-04T14:29:18.459Z,34.31
2018-07-04T14:31:58.863Z,34.34
2018-07-04T14:34:39.228Z,34.06
2018-07-04T14:37:20.014Z,34.36
2018-07-04T14:40:00.508Z,34.65
2018-07-04T14:42:40.973Z,34.55
2018-07-04T14:45:21.428Z,33.90
2018-07-04T14:48:02.258Z,33.35
2018-07-04T14:50:42.794Z,33.10
2018-07-04T14:53:23.134Z,33.48
2018-07-04T14:56:03.496Z,32.58
2018-07-04T14:58:43.947Z,33.42
2018-07-04T15:01:24.482Z,31.99
2018-07-04T15:04:05.061Z,31.84
2018-07-04T15:06:45.746Z,31.81
2018-07-04T15:09:26.438Z,31.29
2018-07-04T15:12:06.927Z,30.02
2018-07-04T15:14:47.447Z,29.42
2018-07-04T15:17:28.250Z,29.73
2018-07-04T15:20:08.842Z,29.93
2018-07-04T15:22:49.434Z,29.66
2018-07-04T15:25:30.192Z,29.54
2018-07-04T15:28:10.891Z,29.68
2018-07-04T15:30:51.808Z,29.52
2018-07-04T15:33:32.290Z,29.99
2018-07-04T15:36:13.063Z,29.44
2018-07-04T15:38:53.776Z,29.57
2018-07-04T15:41:34.581Z,30.05
2018-07-04T15:44:15.276Z,29.25
2018-07-04T15:46:56.044Z,29.14
2018-07-04T15:49:36.517Z,29.74
2018-07-04T15:52:17.324Z,29.70
2018-07-04T15:54:57.982Z,29.28
2018-07-04T15:57:38.638Z,28.99
2018-07-04T16:00:19.212Z,28.87
2018-07-04T16:02:59.995Z,28.99
2018-07-04T16:05:40.598Z,28.66
2018-07-04T16:08:21.169Z,28.87
2018-07-04T16:11:02.130Z,28.47
2018-07-04T16:13:42.979Z,27.98
2018-07-04T16:16:23.689Z,28.21
2018-07-04T16:19:04.391Z,28.32
2018-07-04T16:21:45.088Z,27.73
2018-07-04T16:24:26.016Z,27.59
2018-07-04T16:27:06.804Z,27.53
2018-07-04T16:29:47.476Z,27.59
2018-07-04T16:32:28.221Z,28.28
2018-07-04T16:35:08.814Z,27.84
2018-07-04T16:37:49.731Z,27.89
2018-07-04T16:40:30.899Z,27.72
2018-07-04T16:43:11.621Z,28.03
2018-07-04T16:45:52.255Z,27.95
2018-07-04T16:48:32.995Z,28.32
2018-07-04T16:51:13.849Z,28.47
2018-07-04T16:53:54.535Z,28.34
2018-07-04T16:56:35.363Z,27.83
2018-07-04T16:59:16.149Z,27.36
2018-07-04T17:01:57.031Z,27.16
2018-07-04T17:04:37.832Z,26.77
2018-07-04T17:07:18.657Z,26.78
2018-07-04T17:09:59.418Z,27.21
2018-07-04T17:12:40.374Z,26.68
2018-07-04T17:15:21.117Z,26.80
2018-07-04T17:18:01.740Z,26.73
2018-07-04T17:20:42.369Z,26.30
2018-07-04T17:23:23.165Z,26.11
2018-07-04T17:26:04.046Z,25.76
2018-07-04T17:28:44.918Z,25.81
2018-07-04T17:31:25.723Z,25.76
2018-07-04T17:34:06.309Z,25.40
2018-07-04T17:36:47.177Z,25.50
2018-07-04T17:39:28.050Z,25.58
2018-07-04T17:42:08.634Z,25.19
2018-07-04T17:44:49.311Z,25.08
2018-07-04T17:47:30.204Z,25.42
2018-07-04T17:50:11.005Z,25.70
2018-07-04T17:52:51.734Z,24.86
2018-07-04T17:55:32.453Z,24.85
2018-07-04T17:58:13.204Z,24.86
2018-07-04T18:00:54.014Z,24.85
2018-07-04T18:03:34.785Z,24.04
2018-07-04T18:06:15.358Z,23.20
2018-07-04T18:08:56.031Z,23.36
2018-07-04T18:11:36.794Z,24.17
2018-07-04T18:14:17.865Z,24.54
2018-07-04T18:16:58.734Z,25.00
2018-07-04T18:19:39.509Z,25.11
2018-07-04T18:22:20.181Z,24.54
2018-07-04T18:25:00.928Z,25.02
2018-07-04T18:27:41.637Z,25.35
2018-07-04T18:30:22.355Z,25.44
2018-07-04T18:33:03.176Z,25.45
2018-07-04T18:35:43.925Z,24.05
2018-07-04T18:38:24.591Z,24.03
2018-07-04T18:41:05.380Z,24.75
2018-07-04T18:43:46.033Z,24.94
2018-07-04T18:46:26.693Z,24.90
2018-07-04T18:49:07.541Z,24.95
2018-07-04T18:51:48.328Z,25.17
2018-07-04T18:54:28.876Z,25.06
2018-07-04T18:57:09.508Z,25.23
2018-07-04T18:59:50.030Z,25.22
2018-07-04T19:02:30.824Z,25.36
2018-07-04T19:05:11.628Z,25.14
2018-07-04T19:07:52.627Z,24.46
2018-07-04T19:10:33.357Z,24.09
2018-07-04T19:13:14.245Z,23.93
2018-07-04T19:15:55.317Z,23.76
2018-07-04T19:18:36.045Z,23.57
2018-07-04T19:21:16.627Z,23.47
2018-07-04T19:23:57.335Z,22.96
2018-07-04T19:26:38.061Z,23.01
2018-07-04T19:29:18.734Z,22.49
2018-07-04T19:31:59.208Z,22.45
2018-07-04T19:34:39.787Z,22.23
2018-07-04T19:37:20.225Z,21.48
2018-07-04T19:40:00.603Z,19.64
2018-07-04T19:42:41.125Z,19.53
2018-07-04T19:45:21.918Z,19.70
2018-07-04T19:48:02.732Z,19.74
2018-07-04T19:50:43.106Z,20.05
2018-07-04T19:53:23.574Z,20.29
2018-07-04T19:56:04.118Z,20.65
2018-07-04T19:58:44.427Z,20.52
2018-07-04T20:01:24.857Z,20.93
2018-07-04T20:04:05.238Z,21.58
2018-07-04T20:06:45.528Z,22.03
2018-07-04T20:09:26.070Z,21.71
2018-07-04T20:12:06.431Z,21.21
2018-07-04T20:14:46.858Z,21.45
2018-07-04T20:17:27.554Z,22.10
2018-07-04T20:20:07.991Z,21.63
2018-07-04T20:22:48.303Z,21.37
2018-07-04T20:25:28.736Z,21.23
2018-07-04T20:28:09.189Z,20.83
2018-07-04T20:30:49.753Z,21.36
2018-07-04T20:33:30.268Z,21.42
2018-07-04T20:36:10.731Z,20.73
2018-07-04T20:38:51.140Z,20.68
2018-07-04T20:41:32.649Z,20.96
2018-07-04T20:44:12.952Z,21.10
2018-07-04T20:46:53.509Z,21.71
2018-07-04T20:49:33.714Z,21.96
2018-07-04T20:52:14.071Z,22.23
2018-07-04T20:54:55.518Z,22.29
2018-07-04T20:57:35.856Z,22.04
2018-07-04T21:00:16.365Z,22.20
2018-07-04T21:02:57.001Z,22.34
2018-07-04T21:05:37.249Z,22.26
2018-07-04T21:08:17.789Z,22.25
2018-07-04T21:10:58.210Z,22.10
2018-07-04T21:13:38.585Z,20.77
2018-07-04T21:16:19.006Z,21.19
2018-07-04T21:18:59.461Z,21.55
2018-07-04T21:21:39.769Z,21.86
2018-07-04T21:24:20.202Z,21.49
2018-07-04T21:27:00.945Z,21.53
2018-07-04T21:29:41.331Z,21.40
2018-07-04T21:32:21.698Z,21.75
2018-07-04T21:35:02.037Z,21.39
2018-07-04T21:37:42.552Z,21.72
2018-07-04T21:40:22.928Z,20.78
2018-07-04T21:43:03.347Z,20.59
2018-07-04T21:45:43.786Z,21.20
2018-07-04T21:48:24.331Z,21.12
2018-07-04T21:51:04.842Z,20.81
2018-07-04T21:53:45.135Z,21.09
2018-07-04T21:56:25.459Z,21.02
2018-07-04T21:59:05.916Z,21.38
2018-07-04T22:01:46.465Z,21.69
2018-07-04T22:04:26.884Z,21.97
2018-07-04T22:07:07.316Z,22.16
2018-07-04T22:09:47.684Z,22.00
2018-07-04T22:12:28.062Z,21.96
2018-07-04T22:15:08.526Z,21.75
2018-07-04T22:17:48.787Z,21.77
2018-07-04T22:20:28.938Z,21.38
2018-07-04T22:23:09.327Z,20.71
2018-07-04T22:25:49.824Z,20.70
2018-07-04T22:28:30.249Z,21.10
2018-07-04T22:31:10.789Z,21.60
2018-07-04T22:33:51.125Z,21.68
2018-07-04T22:36:31.442Z,21.85
2018-07-04T22:39:11.948Z,21.41
2018-07-04T22:41:52.551Z,21.63
2018-07-04T22:44:33.169Z,21.89
2018-07-04T22:47:13.621Z,21.89
2018-07-04T22:49:53.952Z,21.79
2018-07-04T22:52:34.296Z,21.60
2018-07-04T22:55:14.789Z,21.80
2018-07-04T22:57:55.383Z,21.55
2018-07-04T23:00:35.799Z,20.59
2018-07-04T23:03:16.390Z,20.69
2018-07-04T23:05:56.812Z,21.15
2018-07-04T23:08:37.152Z,21.26
2018-07-04T23:11:17.573Z,21.45
2018-07-04T23:13:58.195Z,21.46
2018-07-04T23:16:38.810Z,20.67
2018-07-04T23:19:19.439Z,20.98
2018-07-04T23:22:00.046Z,20.77
2018-07-04T23:24:40.825Z,21.04
2018-07-04T23:27:21.241Z,21.41
2018-07-04T23:30:01.636Z,21.03
2018-07-04T23:32:42.201Z,21.27
2018-07-04T23:35:22.591Z,21.23
2018-07-04T23:38:02.905Z,21.19
2018-07-04T23:40:43.250Z,21.31
2018-07-04T23:43:23.505Z,21.11
2018-07-04T23:46:04.030Z,21.23
2018-07-04T23:48:44.521Z,21.42
2018-07-04T23:51:24.959Z,21.45
2018-07-04T23:54:05.384Z,21.09
2018-07-04T23:56:45.783Z,21.01
2018-07-04T23:59:26.220Z,20.95
